Time;durP1;ratioP1;P1;durP2;ratioP2;P2;SDS_P1;SDS_P2;PMS_P1;PMS_P2;Temp;Humidity;BMP_temperature;BMP_pressure;BME280_temperature;BME280_humidity;BME280_pressure;Samples;Min_cycle;Max_cycle;Signal;HPM_P1;HPM_P2
2022/08/05 00:01:40;;;;;;;10.93;4.70;;;;;;;19.05;92.77;101302.41;5113810;28;20048;-83
2022/08/05 00:04:06;;;;;;;10.90;4.90;;;;;;;19.03;92.80;101301.84;5096374;28;20019;-83
2022/08/05 00:06:31;;;;;;;9.10;4.93;;;;;;;19.01;92.12;101308.69;5079395;28;20036;-83
2022/08/05 00:08:57;;;;;;;11.60;5.50;;;;;;;18.99;92.66;101303.47;5112916;28;20027;-83
2022/08/05 00:11:22;;;;;;;10.23;5.27;;;;;;;18.97;92.85;101302.91;5114202;28;20023;-82
2022/08/05 00:13:47;;;;;;;12.80;5.60;;;;;;;18.96;93.83;101292.16;5095783;28;20118;-83
2022/08/05 00:16:14;;;;;;;7.53;5.20;;;;;;;18.98;92.82;101299.03;5113250;28;20106;-83
2022/08/05 00:18:43;;;;;;;11.75;5.88;;;;;;;19.00;92.92;101316.13;5114558;28;20023;-83
2022/08/05 00:21:09;;;;;;;8.98;5.20;;;;;;;19.01;93.05;101316.94;5113102;28;20518;-83
2022/08/05 00:23:36;;;;;;;12.88;5.63;;;;;;;19.01;92.74;101303.19;5113070;28;20471;-83
2022/08/05 00:26:02;;;;;;;13.88;5.55;;;;;;;19.01;92.88;101301.28;5113045;28;20019;-82
2022/08/05 00:28:30;;;;;;;11.53;5.80;;;;;;;19.03;93.25;101301.84;5095820;28;20038;-83
2022/08/05 00:30:56;;;;;;;9.90;5.38;;;;;;;19.02;92.60;101305.69;5095998;28;20107;-82
2022/08/05 00:33:21;;;;;;;10.20;5.50;;;;;;;19.04;93.10;101317.25;5112866;28;20515;-83
2022/08/05 00:35:47;;;;;;;11.17;5.50;;;;;;;19.05;92.99;101324.41;5095844;28;20110;-83
2022/08/05 00:38:12;;;;;;;12.10;6.32;;;;;;;19.08;93.16;101325.81;5095969;28;20498;-83
2022/08/05 00:40:55;;;;;;;7.23;5.47;;;;;;;19.11;92.64;101323.38;5112723;28;20043;-83
2022/08/05 00:43:21;;;;;;;13.27;6.30;;;;;;;19.12;93.62;101315.97;5112539;28;20024;-83
2022/08/05 00:45:47;;;;;;;11.93;5.83;;;;;;;19.09;93.63;101303.56;5095666;28;20055;-83
2022/08/05 00:48:20;;;;;;;10.57;5.85;;;;;;;19.11;92.86;101309.63;5112956;28;20066;-83
2022/08/05 00:50:49;;;;;;;13.73;6.55;;;;;;;19.06;93.19;101297.72;5113018;28;20047;-83
2022/08/05 00:53:18;;;;;;;9.33;5.70;;;;;;;19.03;92.96;101301.00;5114212;28;20023;-83
2022/08/05 00:55:43;;;;;;;8.75;5.43;;;;;;;19.07;93.77;101308.50;5113012;28;20362;-83
2022/08/05 00:58:17;;;;;;;11.68;6.18;;;;;;;19.02;93.04;101304.88;5112554;28;20035;-83
2022/08/05 01:00:43;;;;;;;11.80;5.95;;;;;;;19.00;93.49;101309.78;5112876;28;20460;-83
2022/08/05 01:03:10;;;;;;;9.87;5.83;;;;;;;18.95;93.42;101307.81;5095423;28;20044;-82
2022/08/05 01:05:35;;;;;;;10.15;5.78;;;;;;;18.90;93.61;101300.34;5112754;28;20498;-83
2022/08/05 01:08:01;;;;;;;10.93;5.72;;;;;;;18.89;93.78;101312.44;5112983;28;20067;-83
2022/08/05 01:10:34;;;;;;;9.47;5.90;;;;;;;18.88;93.82;101324.53;5095552;28;20039;-83
2022/08/05 01:13:09;;;;;;;10.48;5.72;;;;;;;18.88;94.55;101335.53;5113322;28;20375;-83
2022/08/05 01:15:41;;;;;;;14.73;6.20;;;;;;;18.81;94.16;101345.88;5116697;28;20020;-83
2022/08/05 01:18:14;;;;;;;12.65;5.93;;;;;;;18.79;94.31;101353.53;5116505;28;20483;-83
2022/08/05 01:21:02;;;;;;;12.53;6.40;;;;;;;18.77;94.88;101373.03;5116469;28;20040;-84
2022/08/05 01:23:53;;;;;;;10.85;5.82;;;;;;;18.72;94.50;101388.63;5116289;28;20070;-83
2022/08/05 01:26:43;;;;;;;11.82;5.75;;;;;;;18.66;95.09;101396.00;5117376;28;20035;-83
2022/08/05 01:29:48;;;;;;;13.10;5.97;;;;;;;18.70;94.56;101393.56;5116663;28;20066;-83
2022/08/05 01:32:19;;;;;;;12.05;5.18;;;;;;;18.72;94.76;101367.50;5113509;28;20483;-83
2022/08/05 01:34:54;;;;;;;9.83;5.30;;;;;;;18.73;94.84;101366.41;5116087;28;20031;-83
2022/08/05 01:37:34;;;;;;;10.18;5.50;;;;;;;18.72;95.04;101362.00;5117361;28;20031;-83
2022/08/05 01:40:01;;;;;;;10.93;5.43;;;;;;;18.74;95.01;101367.22;5116055;28;20044;-83
2022/08/05 01:42:30;;;;;;;10.90;5.32;;;;;;;18.75;95.71;101375.22;5098523;28;20387;-83
2022/08/05 01:44:57;;;;;;;9.70;5.25;;;;;;;18.75;95.30;101383.47;5117222;27;20103;-83
2022/08/05 01:47:25;;;;;;;10.00;5.17;;;;;;;18.74;95.74;101379.06;5115940;28;20057;-83
2022/08/05 01:49:53;;;;;;;12.23;5.78;;;;;;;18.79;95.89;101375.53;5116034;28;20102;-83
2022/08/05 01:52:20;;;;;;;10.20;5.20;;;;;;;18.84;95.82;101372.00;5115656;28;20081;-83
2022/08/05 01:54:55;;;;;;;11.73;5.32;;;;;;;18.87;95.32;101371.53;5115216;28;20016;-83
2022/08/05 01:57:34;;;;;;;9.88;5.65;;;;;;;18.90;95.10;101357.28;5115765;28;20023;-82
2022/08/05 02:00:03;;;;;;;17.17;5.77;;;;;;;18.95;95.09;101349.06;5115667;28;20038;-83
2022/08/05 02:02:30;;;;;;;13.77;5.00;;;;;;;18.95;94.49;101338.06;5114902;28;20059;-83
2022/08/05 02:05:07;;;;;;;15.23;5.30;;;;;;;18.94;94.31;101322.66;5115616;28;20029;-83
2022/08/05 02:07:34;;;;;;;12.60;4.90;;;;;;;18.92;94.08;101300.91;5115354;28;20032;-84
2022/08/05 02:10:01;;;;;;;9.20;4.88;;;;;;;18.89;93.69;101304.19;5115356;28;20149;-83
2022/08/05 02:12:48;;;;;;;13.20;5.43;;;;;;;18.96;93.40;101303.16;5114906;28;20031;-84
2022/08/05 02:15:25;;;;;;;11.32;5.25;;;;;;;18.96;93.48;101322.41;5115269;28;20360;-83
2022/08/05 02:17:57;;;;;;;9.90;5.25;;;;;;;18.90;93.40;101355.34;5115316;28;20023;-83
2022/08/05 02:20:26;;;;;;;13.00;5.07;;;;;;;18.88;92.82;101330.03;5116554;28;20042;-83
2022/08/05 02:22:58;;;;;;;14.75;5.85;;;;;;;18.90;93.25;101307.78;5115124;28;20039;-84
2022/08/05 02:25:27;;;;;;;10.00;5.27;;;;;;;18.88;93.14;101331.94;5114516;28;20039;-83
2022/08/05 02:27:56;;;;;;;9.98;4.57;;;;;;;18.91;92.97;101345.16;5115075;28;20418;-84
2022/08/05 02:30:23;;;;;;;15.63;5.80;;;;;;;18.89;92.06;101350.09;5114986;28;20123;-83
2022/08/05 02:32:51;;;;;;;8.95;4.50;;;;;;;18.89;92.42;101361.09;5098936;28;20028;-83
2022/08/05 02:35:21;;;;;;;10.25;5.32;;;;;;;18.92;93.05;101358.66;5114706;28;20452;-83
2022/08/05 02:37:49;;;;;;;12.67;4.97;;;;;;;18.91;92.14;101361.66;5116187;28;20024;-83
2022/08/05 02:40:17;;;;;;;12.80;5.13;;;;;;;18.93;92.01;101368.56;5114703;28;20111;-83
2022/08/05 02:42:44;;;;;;;12.57;4.80;;;;;;;18.97;92.14;101368.03;5114247;28;20383;-83
2022/08/05 02:45:11;;;;;;;10.63;5.00;;;;;;;18.96;91.42;101355.41;5114657;28;20038;-84
2022/08/05 02:47:36;;;;;;;11.15;4.95;;;;;;;18.98;92.24;101348.53;5098170;28;20088;-83
2022/08/05 02:50:05;;;;;;;12.57;5.33;;;;;;;18.96;91.46;101344.41;5115975;28;20032;-84
2022/08/05 02:52:32;;;;;;;11.13;5.20;;;;;;;18.93;91.29;101337.50;5114530;28;20115;-83
2022/08/05 02:55:04;;;;;;;12.27;5.45;;;;;;;18.94;91.20;101333.66;5115804;28;20058;-84
2022/08/05 02:57:30;;;;;;;14.50;4.82;;;;;;;18.93;90.84;101332.00;5114588;28;20118;-84
2022/08/05 02:59:56;;;;;;;11.40;4.97;;;;;;;18.91;91.00;101335.00;5097450;28;20114;-84
2022/08/05 03:02:27;;;;;;;11.25;5.18;;;;;;;18.92;90.85;101328.41;5114271;28;20545;-83
2022/08/05 03:04:54;;;;;;;16.27;5.70;;;;;;;18.89;90.35;101325.38;5114389;28;20036;-84
2022/08/05 03:07:20;;;;;;;11.70;4.90;;;;;;;18.91;90.62;101326.78;5115603;28;20042;-83
2022/08/05 03:09:46;;;;;;;10.38;5.15;;;;;;;18.88;90.54;101319.03;5097296;28;20496;-83
2022/08/05 03:12:35;;;;;;;12.82;5.00;;;;;;;18.91;90.39;101329.53;5113600;28;20536;-84
2022/08/05 03:15:01;;;;;;;13.63;5.50;;;;;;;18.90;91.09;101338.84;5114074;28;20027;-83
2022/08/05 03:17:26;;;;;;;18.27;5.47;;;;;;;18.91;90.85;101347.91;5114698;28;20123;-83
2022/08/05 03:19:52;;;;;;;13.13;5.27;;;;;;;18.89;90.20;101359.16;5096890;28;20051;-83
2022/08/05 03:22:17;;;;;;;7.33;4.93;;;;;;;18.87;90.25;101363.28;5097353;28;20119;-83
2022/08/05 03:24:44;;;;;;;13.43;5.43;;;;;;;18.83;90.74;101360.19;5096882;28;20386;-84
2022/08/05 03:27:10;;;;;;;11.70;5.43;;;;;;;18.80;90.10;101357.94;5113844;28;20043;-84
2022/08/05 03:29:37;;;;;;;7.93;5.45;;;;;;;18.75;90.49;101361.47;5113816;28;20036;-84
2022/08/05 03:32:04;;;;;;;16.05;5.30;;;;;;;18.74;90.93;101368.06;5097299;28;20062;-84
2022/08/05 03:34:31;;;;;;;11.43;5.10;;;;;;;18.75;91.09;101369.72;5114828;28;20035;-83
2022/08/05 03:36:59;;;;;;;12.50;4.83;;;;;;;18.71;90.55;101359.50;5113849;28;20042;-84
2022/08/05 03:39:27;;;;;;;13.77;5.63;;;;;;;18.68;90.70;101363.59;5096427;28;20051;-84
2022/08/05 03:41:56;;;;;;;12.02;5.65;;;;;;;18.65;91.10;101377.03;5079781;28;20027;-83
2022/08/05 03:44:21;;;;;;;12.13;5.35;;;;;;;18.64;90.87;101370.69;5113314;28;20035;-84
2022/08/05 03:46:46;;;;;;;10.40;5.60;;;;;;;18.64;91.00;101362.44;5096585;28;20028;-84
2022/08/05 03:49:12;;;;;;;13.37;5.97;;;;;;;18.61;91.47;101365.69;5115133;28;20066;-84
2022/08/05 03:51:44;;;;;;;12.82;5.38;;;;;;;18.61;91.85;101356.63;5113616;28;20087;-83
2022/08/05 03:54:18;;;;;;;18.67;5.90;;;;;;;18.61;91.42;101353.88;5114424;28;20031;-84
2022/08/05 03:56:48;;;;;;;9.15;5.43;;;;;;;18.61;91.79;101346.47;5114245;28;20380;-83
2022/08/05 03:59:19;;;;;;;11.48;5.65;;;;;;;18.60;92.04;101339.31;5113381;28;20066;-84
2022/08/05 04:01:48;;;;;;;11.80;5.10;;;;;;;18.62;92.25;101341.81;5114102;28;20047;-84
2022/08/05 04:04:15;;;;;;;13.75;5.70;;;;;;;18.63;92.27;101343.47;5113443;28;20043;-84
2022/08/05 04:06:47;;;;;;;8.73;5.10;;;;;;;18.61;91.52;101349.22;5097056;28;20093;-83
2022/08/05 04:09:14;;;;;;;11.88;5.57;;;;;;;18.59;91.83;101343.97;5114560;28;20031;-84
2022/08/05 04:11:39;;;;;;;11.88;5.25;;;;;;;18.56;91.64;101333.50;5114449;28;20097;-84
2022/08/05 04:14:06;;;;;;;11.53;5.13;;;;;;;18.51;91.81;101333.47;5112498;28;20028;-83
2022/08/05 04:16:34;;;;;;;11.73;5.30;;;;;;;18.47;91.93;101336.94;5113017;28;20028;-84
2022/08/05 04:19:00;;;;;;;10.90;5.55;;;;;;;18.40;92.56;101339.91;5113188;28;20028;-83
2022/08/05 04:21:26;;;;;;;11.00;5.43;;;;;;;18.36;91.89;101345.06;5096044;28;20475;-83
2022/08/05 04:23:52;;;;;;;9.23;5.83;;;;;;;18.34;92.25;101349.19;5114185;28;20039;-84
2022/08/05 04:26:17;;;;;;;12.90;5.27;;;;;;;18.30;92.08;101329.63;5113033;28;20555;-84
2022/08/05 04:28:42;;;;;;;10.53;5.47;;;;;;;18.33;92.54;101331.03;5113340;28;20027;-84
2022/08/05 04:31:08;;;;;;;11.63;5.90;;;;;;;18.31;92.57;101330.47;5112876;28;20464;-83
2022/08/05 04:33:34;;;;;;;12.80;5.20;;;;;;;18.33;92.21;101334.59;5113828;28;20032;-83
2022/08/05 04:35:59;;;;;;;11.73;5.37;;;;;;;18.35;91.70;101346.19;5113251;28;20031;-84
2022/08/05 04:38:24;;;;;;;15.83;6.00;;;;;;;18.36;91.92;101350.56;5096225;28;20032;-84
2022/08/05 04:40:50;;;;;;;11.93;5.70;;;;;;;18.38;91.69;101359.41;5112737;28;20059;-83
2022/08/05 04:43:15;;;;;;;12.57;5.73;;;;;;;18.38;91.62;101362.16;5079123;28;20038;-84
2022/08/05 04:45:41;;;;;;;15.13;6.00;;;;;;;18.36;91.08;101366.22;5113577;28;20035;-84
2022/08/05 04:48:11;;;;;;;13.30;5.00;;;;;;;18.34;91.65;101360.16;5115324;28;20031;-83
2022/08/05 04:50:48;;;;;;;17.00;5.97;;;;;;;18.36;91.07;101360.72;5118462;28;20055;-84
2022/08/05 04:53:15;;;;;;;14.05;5.93;;;;;;;18.36;91.29;101364.28;5116732;28;20057;-84
2022/08/05 04:55:41;;;;;;;10.00;5.30;;;;;;;18.35;91.23;101365.41;5116804;28;20031;-84
2022/08/05 04:58:09;;;;;;;12.17;5.43;;;;;;;18.38;91.17;101355.81;5116848;28;20031;-83
2022/08/05 05:00:35;;;;;;;13.02;5.57;;;;;;;18.40;90.99;101354.47;5116314;28;20039;-84
2022/08/05 05:03:02;;;;;;;12.95;6.13;;;;;;;18.43;90.94;101366.03;5116227;28;20075;-84
2022/08/05 05:05:31;;;;;;;11.80;5.40;;;;;;;18.47;91.15;101357.03;5116733;28;20036;-84
2022/08/05 05:08:05;;;;;;;12.15;5.30;;;;;;;18.56;90.82;101360.16;5099583;28;20066;-83
2022/08/05 05:10:32;;;;;;;11.27;5.37;;;;;;;18.58;90.06;101366.22;5118251;28;20047;-84
2022/08/05 05:12:58;;;;;;;10.30;5.28;;;;;;;18.63;90.05;101369.03;5115995;28;20032;-84
2022/08/05 05:15:25;;;;;;;11.67;5.17;;;;;;;18.73;89.65;101365.56;5116342;28;20418;-83
2022/08/05 05:17:50;;;;;;;8.80;5.20;;;;;;;18.76;89.31;101362.28;5116277;28;20035;-85
2022/08/05 05:20:15;;;;;;;16.67;5.97;;;;;;;18.79;88.93;101359.03;5082601;28;20039;-84
2022/08/05 05:22:41;;;;;;;9.05;5.00;;;;;;;18.82;88.60;101368.69;5117533;28;20443;-83
2022/08/05 05:25:07;;;;;;;9.77;4.57;;;;;;;18.81;88.07;101365.13;5082299;28;20032;-83
2022/08/05 05:27:34;;;;;;;12.50;5.03;;;;;;;18.79;88.86;101375.53;5098990;28;20513;-86
2022/08/05 05:30:00;;;;;;;15.40;5.50;;;;;;;18.74;89.03;101375.47;5116392;28;20028;-86
2022/08/05 05:32:26;;;;;;;9.35;4.90;;;;;;;18.73;88.32;101380.16;5115948;28;20095;-85
2022/08/05 05:34:51;;;;;;;12.23;5.03;;;;;;;18.76;88.93;101385.13;5115658;28;20050;-86
2022/08/05 05:37:17;;;;;;;12.13;4.93;;;;;;;18.76;89.26;101382.38;5116037;28;20036;-86
2022/08/05 05:39:42;;;;;;;11.00;4.93;;;;;;;18.77;88.25;101384.03;5098963;28;20035;-87
2022/08/05 05:42:08;;;;;;;10.03;5.10;;;;;;;18.79;88.42;101396.69;5115760;28;20375;-87
2022/08/05 05:44:33;;;;;;;11.00;5.00;;;;;;;18.82;88.79;101391.50;5116920;28;20039;-86
2022/08/05 05:46:59;;;;;;;10.60;4.77;;;;;;;18.79;88.52;101402.19;5116993;28;20110;-86
2022/08/05 05:49:25;;;;;;;10.02;4.55;;;;;;;18.81;89.02;101413.75;5115745;28;20540;-85
2022/08/05 05:51:52;;;;;;;7.30;4.63;;;;;;;18.80;88.84;101407.44;5115693;28;20031;-85
2022/08/05 05:54:17;;;;;;;11.43;4.67;;;;;;;18.84;88.92;101405.84;5115736;28;20024;-85
2022/08/05 05:56:43;;;;;;;11.05;4.80;;;;;;;18.90;87.97;101413.06;5115847;28;20105;-85
2022/08/05 05:59:08;;;;;;;8.50;4.60;;;;;;;18.99;87.71;101413.44;5114940;28;20027;-85
2022/08/05 06:01:38;;;;;;;14.20;5.03;;;;;;;19.03;87.02;101420.09;5098054;28;20459;-85
2022/08/05 06:04:07;;;;;;;10.35;4.35;;;;;;;19.04;87.21;101419.00;5116502;27;20036;-85
2022/08/05 06:06:33;;;;;;;12.68;4.10;;;;;;;19.11;86.37;101416.06;5098900;28;20127;-85
2022/08/05 06:08:59;;;;;;;8.43;3.80;;;;;;;19.19;86.57;101414.75;5098487;28;20036;-85
2022/08/05 06:11:24;;;;;;;9.57;4.13;;;;;;;19.29;85.77;101409.34;5115373;28;20026;-85
2022/08/05 06:13:50;;;;;;;8.67;3.80;;;;;;;19.34;84.72;101411.31;5098003;28;20560;-85
2022/08/05 06:16:18;;;;;;;15.43;3.83;;;;;;;19.35;84.46;101411.06;5097870;28;20492;-85
2022/08/05 06:18:43;;;;;;;10.27;3.63;;;;;;;19.35;84.48;101422.06;5115189;28;20036;-85
2022/08/05 06:21:09;;;;;;;10.25;4.25;;;;;;;19.37;84.54;101419.03;5114726;28;20023;-85
2022/08/05 06:23:34;;;;;;;9.20;3.63;;;;;;;19.43;83.74;101413.34;5116348;28;20133;-86
2022/08/05 06:26:00;;;;;;;6.17;3.30;;;;;;;19.52;83.36;101413.69;5098219;28;20391;-85
2022/08/05 06:28:28;;;;;;;10.38;3.72;;;;;;;19.61;83.00;101414.88;5081464;28;20495;-85
2022/08/05 06:30:54;;;;;;;7.40;3.57;;;;;;;19.63;82.81;101422.84;5097947;28;20028;-85
2022/08/05 06:33:19;;;;;;;6.55;3.17;;;;;;;19.70;83.38;101428.16;5114883;28;20027;-85
2022/08/05 06:35:44;;;;;;;7.93;3.63;;;;;;;19.80;82.79;101425.53;5114803;28;20031;-85
2022/08/05 06:38:10;;;;;;;7.03;3.57;;;;;;;19.94;82.41;101426.72;5114839;28;20035;-85
2022/08/05 06:40:35;;;;;;;6.33;3.23;;;;;;;20.11;81.26;101426.56;5097606;28;20116;-85
2022/08/05 06:43:04;;;;;;;8.50;3.40;;;;;;;20.26;80.27;101439.59;5115872;28;20034;-85
2022/08/05 06:45:29;;;;;;;9.93;3.20;;;;;;;20.31;79.34;101436.03;5098333;28;20269;-86
2022/08/05 06:47:55;;;;;;;7.50;3.60;;;;;;;20.40;79.36;101447.38;5097563;28;20042;-90
2022/08/05 06:50:20;;;;;;;9.33;3.73;;;;;;;20.45;79.05;101448.25;5097884;28;20309;-90
2022/08/05 06:52:45;;;;;;;6.97;3.70;;;;;;;20.48;78.16;101453.22;5097522;28;20031;-90
2022/08/05 06:55:11;;;;;;;8.13;3.27;;;;;;;20.51;78.27;101466.47;5080603;28;20051;-90
2022/08/05 06:57:36;;;;;;;8.97;4.10;;;;;;;20.52;77.76;101459.03;5115815;28;20391;-88
2022/08/05 07:00:03;;;;;;;8.25;3.55;;;;;;;20.54;77.08;101472.56;5097950;28;20498;-88
2022/08/05 07:02:29;;;;;;;10.77;3.53;;;;;;;20.63;77.21;101463.50;5114767;28;20075;-88
2022/08/05 07:04:55;;;;;;;6.53;3.00;;;;;;;20.74;76.68;101467.16;5115410;28;20129;-88
2022/08/05 07:07:20;;;;;;;9.30;3.30;;;;;;;20.83;76.28;101467.47;5115433;28;20027;-88
2022/08/05 07:09:46;;;;;;;8.10;3.20;;;;;;;21.03;76.08;101475.00;5080474;28;20031;-88
2022/08/05 07:16:48;;;;;;;6.30;3.10;;;;;;;21.10;76.53;101475.56;5096906;28;20269;-88
2022/08/05 07:17:40;;;;;;;10.00;3.03;;;;;;;21.48;73.67;101478.13;5115369;28;20398;-88
2022/08/05 07:20:06;;;;;;;6.53;2.90;;;;;;;21.52;72.63;101476.53;5114086;28;20019;-88
2022/08/05 07:22:31;;;;;;;9.13;3.20;;;;;;;21.66;72.68;101479.59;5080370;28;20028;-88
2022/08/05 07:24:59;;;;;;;6.83;3.23;;;;;;;21.89;72.26;101486.47;5113862;28;20049;-88
2022/08/05 07:27:24;;;;;;;9.27;3.70;;;;;;;22.08;71.57;101495.88;5097329;28;20376;-88
2022/08/05 07:29:50;;;;;;;7.63;2.90;;;;;;;22.05;69.74;101488.13;5114139;28;20459;-88
2022/08/05 07:32:15;;;;;;;7.77;2.93;;;;;;;22.13;70.43;101496.97;5096883;28;20027;-88
2022/08/05 07:34:41;;;;;;;7.40;2.80;;;;;;;22.30;70.20;101502.22;5113617;28;20459;-88
2022/08/05 07:37:06;;;;;;;7.73;3.17;;;;;;;22.33;68.38;101507.22;5113829;28;20062;-88
2022/08/05 07:39:33;;;;;;;7.87;2.93;;;;;;;22.37;67.57;101502.78;5114116;28;20023;-88
2022/08/05 07:41:58;;;;;;;4.68;2.60;;;;;;;22.41;67.83;101504.72;5115048;28;20028;-88
2022/08/05 07:44:24;;;;;;;7.50;2.50;;;;;;;22.55;66.93;101507.72;5114396;28;20069;-88
2022/08/05 07:46:49;;;;;;;9.50;2.70;;;;;;;22.68;66.03;101505.47;5097192;28;20028;-88
2022/08/05 07:49:15;;;;;;;8.20;2.50;;;;;;;22.57;64.05;101508.28;5079680;28;20059;-88
2022/08/05 07:51:41;;;;;;;5.82;2.40;;;;;;;22.36;63.46;101513.00;5113399;28;20061;-88
2022/08/05 07:54:07;;;;;;;8.27;2.53;;;;;;;22.17;64.08;101504.44;5096639;28;20055;-88
2022/08/05 07:56:32;;;;;;;7.45;2.33;;;;;;;21.98;66.10;101506.94;5112951;28;20030;-88
2022/08/05 07:58:58;;;;;;;7.33;2.40;;;;;;;21.78;65.73;101507.75;5114114;28;20024;-88
2022/08/05 08:01:24;;;;;;;6.20;2.63;;;;;;;21.56;66.24;101510.78;5080056;28;20044;-88
2022/08/05 08:03:53;;;;;;;5.93;2.50;;;;;;;21.47;66.64;101524.25;5096652;28;20040;-88
2022/08/05 08:06:18;;;;;;;8.02;2.33;;;;;;;21.38;66.91;101518.44;5113410;28;20391;-88
2022/08/05 08:08:44;;;;;;;6.33;2.40;;;;;;;21.39;66.72;101530.28;5094994;28;20498;-88
2022/08/05 08:11:09;;;;;;;4.20;2.20;;;;;;;21.43;67.04;101525.06;5095603;28;20517;-88
2022/08/05 08:13:34;;;;;;;7.65;2.50;;;;;;;21.43;65.30;101530.59;5112841;28;20019;-87
2022/08/05 08:16:00;;;;;;;8.50;2.60;;;;;;;21.60;66.10;101530.38;5113168;28;20031;-88
2022/08/05 08:18:26;;;;;;;7.67;2.40;;;;;;;21.98;65.63;101523.53;5112965;28;20569;-88
2022/08/05 08:20:51;;;;;;;4.82;2.47;;;;;;;22.40;62.52;101527.94;5114360;28;20058;-88
2022/08/05 08:23:17;;;;;;;4.90;2.30;;;;;;;22.62;59.96;101528.72;5111995;28;20031;-87
2022/08/05 08:25:43;;;;;;;7.22;2.22;;;;;;;22.82;59.61;101538.91;5114674;28;20036;-85
2022/08/05 08:28:09;;;;;;;4.25;2.13;;;;;;;22.99;60.11;101546.84;5112720;28;20047;-86
2022/08/05 08:30:34;;;;;;;6.17;1.87;;;;;;;23.20;59.50;101544.88;5096098;28;20455;-86
2022/08/05 08:33:05;;;;;;;5.30;2.17;;;;;;;23.34;58.34;101551.47;5114259;28;20486;-86
2022/08/05 08:35:31;;;;;;;4.70;1.90;;;;;;;23.50;58.40;101554.13;5114022;28;20079;-86
2022/08/05 08:37:56;;;;;;;3.60;1.67;;;;;;;23.55;57.85;101552.16;5096046;28;20131;-86
2022/08/05 08:40:23;;;;;;;9.13;2.00;;;;;;;23.58;57.23;101545.22;5113020;28;20030;-86
2022/08/05 08:42:50;;;;;;;6.20;2.03;;;;;;;23.76;57.37;101558.38;5112413;28;20057;-86
2022/08/05 08:45:19;;;;;;;6.80;2.20;;;;;;;23.95;57.43;101558.56;5095866;28;20376;-86
2022/08/05 08:47:48;;;;;;;3.58;1.88;;;;;;;24.21;56.69;101563.06;5113996;28;20031;-86
2022/08/05 08:50:15;;;;;;;5.15;2.08;;;;;;;24.39;56.10;101570.69;5112547;28;20096;-86
2022/08/05 08:52:52;;;;;;;6.63;2.30;;;;;;;24.37;56.30;101577.63;5095645;28;20031;-86
2022/08/05 08:55:19;;;;;;;3.20;2.00;;;;;;;24.14;55.42;101574.50;5112586;28;20118;-86
2022/08/05 08:57:47;;;;;;;5.63;1.80;;;;;;;24.11;55.66;101577.84;5112457;28;20023;-86
2022/08/05 09:00:13;;;;;;;6.10;2.40;;;;;;;24.32;55.12;101584.88;5095798;28;20027;-86
2022/08/05 09:02:39;;;;;;;6.05;1.90;;;;;;;24.34;54.18;101585.44;5112398;28;20063;-87
2022/08/05 09:05:05;;;;;;;6.57;1.90;;;;;;;24.46;54.87;101592.50;5112593;28;20463;-86
2022/08/05 09:07:31;;;;;;;5.90;2.28;;;;;;;24.41;53.99;101589.81;5095805;28;20031;-86
2022/08/05 09:09:56;;;;;;;8.63;2.40;;;;;;;24.26;53.95;101594.34;5095645;28;20023;-86
2022/08/05 09:12:22;;;;;;;4.33;2.20;;;;;;;24.31;53.80;101602.63;5095583;28;20153;-86
2022/08/05 09:14:47;;;;;;;5.27;2.43;;;;;;;24.33;53.78;101599.56;5094685;28;20036;-86
2022/08/05 09:17:13;;;;;;;5.45;1.92;;;;;;;24.57;54.14;101596.03;5112206;28;20070;-86
2022/08/05 09:19:39;;;;;;;3.97;1.77;;;;;;;24.77;53.78;101597.78;5095464;28;20050;-86
2022/08/05 09:22:04;;;;;;;3.53;2.08;;;;;;;24.58;53.65;101597.66;5095664;28;20034;-86
2022/08/05 09:24:29;;;;;;;4.57;1.70;;;;;;;24.01;54.29;101600.13;5112596;28;20573;-86
2022/08/05 09:26:57;;;;;;;4.70;1.90;;;;;;;23.51;55.21;101603.69;5111966;28;20027;-86
2022/08/05 09:29:44;;;;;;;5.03;1.80;;;;;;;23.19;56.29;101610.47;5113381;28;20107;-86
2022/08/05 09:32:10;;;;;;;5.70;1.92;;;;;;;22.90;57.00;101619.38;5112320;28;20039;-86
2022/08/05 09:34:50;;;;;;;4.47;1.83;;;;;;;22.90;57.65;101621.34;5115300;28;20034;-86
2022/08/05 09:37:20;;;;;;;4.27;2.17;;;;;;;22.88;56.35;101620.75;5115795;28;20084;-86
2022/08/05 09:39:46;;;;;;;5.32;2.10;;;;;;;23.01;57.38;101619.38;5115886;28;20490;-86
2022/08/05 09:42:16;;;;;;;5.00;1.80;;;;;;;23.16;56.32;101619.34;5117132;28;20027;-86
2022/08/05 09:44:45;;;;;;;4.23;1.80;;;;;;;23.27;55.27;101625.69;5116072;28;20027;-86
2022/08/05 09:47:15;;;;;;;4.18;2.17;;;;;;;23.48;53.57;101620.88;5117049;28;20114;-86
2022/08/05 09:49:50;;;;;;;5.22;1.70;;;;;;;23.68;53.78;101614.41;5115416;28;20027;-86
2022/08/05 09:52:26;;;;;;;3.45;1.60;;;;;;;24.17;53.80;101615.50;5115860;28;20089;-86
2022/08/05 09:54:58;;;;;;;6.18;1.40;;;;;;;24.08;51.41;101622.75;5115491;28;20031;-86
2022/08/05 09:57:37;;;;;;;3.47;1.50;;;;;;;24.12;51.13;101629.41;5115661;28;20057;-86
2022/08/05 10:00:06;;;;;;;5.53;1.40;;;;;;;24.50;49.43;101629.66;5115333;28;20031;-86
2022/08/05 10:02:50;;;;;;;3.28;1.60;;;;;;;24.39;47.08;101630.84;5115106;28;20040;-86
2022/08/05 10:05:22;;;;;;;5.18;1.00;;;;;;;24.22;47.29;101640.41;5115187;28;20028;-86
2022/08/05 10:08:02;;;;;;;2.95;1.20;;;;;;;24.34;47.08;101640.03;5115166;28;20031;-86
2022/08/05 10:10:35;;;;;;;5.50;1.50;;;;;;;24.57;45.72;101627.38;5115008;28;20031;-89
2022/08/05 10:13:02;;;;;;;4.05;1.15;;;;;;;24.92;44.50;101643.97;5115766;28;20471;-83
2022/08/05 10:15:32;;;;;;;3.50;1.20;;;;;;;25.30;44.79;101639.41;5116210;28;20054;-83
2022/08/05 10:18:14;;;;;;;2.70;1.10;;;;;;;25.32;44.35;101641.91;5116234;28;20031;-86
2022/08/05 10:20:43;;;;;;;2.67;1.10;;;;;;;25.20;42.96;101640.34;5115186;28;20475;-83
2022/08/05 10:23:12;;;;;;;2.40;1.00;;;;;;;25.43;42.97;101648.16;5115064;28;20042;-83
2022/08/05 10:25:37;;;;;;;1.63;1.10;;;;;;;25.38;41.15;101644.31;5114927;28;20020;-83
2022/08/05 10:28:05;;;;;;;3.00;1.30;;;;;;;25.37;43.04;101648.22;5097648;28;20506;-83
2022/08/05 10:30:30;;;;;;;2.93;1.10;;;;;;;25.51;41.05;101648.34;5114779;28;20040;-84
2022/08/05 10:32:59;;;;;;;3.00;1.40;;;;;;;25.89;39.67;101655.88;5097904;28;20040;-83
2022/08/05 10:35:25;;;;;;;2.97;1.40;;;;;;;26.12;37.69;101648.63;5114641;28;20464;-84
2022/08/05 10:37:52;;;;;;;1.97;1.10;;;;;;;26.41;37.10;101648.44;5097817;28;20387;-83
2022/08/05 10:40:25;;;;;;;2.28;1.15;;;;;;;26.74;37.66;101654.03;5116580;28;20034;-83
2022/08/05 10:42:53;;;;;;;2.25;1.30;;;;;;;26.88;37.03;101658.78;5113911;28;20047;-84
2022/08/05 10:45:26;;;;;;;2.17;1.27;;;;;;;26.61;36.53;101661.16;5114591;28;20398;-84
2022/08/05 10:47:52;;;;;;;1.73;1.10;;;;;;;26.18;36.21;101660.50;5097966;28;20024;-83
2022/08/05 10:50:18;;;;;;;2.23;1.30;;;;;;;26.37;36.39;101666.03;5097557;28;20028;-84
2022/08/05 10:52:56;;;;;;;4.93;1.00;;;;;;;26.66;36.15;101663.03;5115799;28;20063;-84
2022/08/05 10:55:23;;;;;;;3.30;1.40;;;;;;;26.76;36.17;101657.31;5114643;28;20088;-84
2022/08/05 10:58:06;;;;;;;2.17;1.27;;;;;;;27.09;35.72;101665.63;5114383;28;20471;-84
2022/08/05 11:00:32;;;;;;;2.15;0.98;;;;;;;27.22;34.27;101671.50;5115752;28;20028;-84
2022/08/05 11:03:08;;;;;;;2.03;1.10;;;;;;;27.30;34.81;101670.78;5097468;28;20048;-84
2022/08/05 11:05:34;;;;;;;3.38;1.10;;;;;;;27.62;33.42;101674.59;5115490;28;20092;-84
2022/08/05 11:08:03;;;;;;;3.00;1.30;;;;;;;27.92;31.16;101669.50;5097333;28;20146;-85
2022/08/05 11:10:30;;;;;;;2.45;1.20;;;;;;;28.09;32.28;101678.03;5114208;28;20119;-84
2022/08/05 11:12:57;;;;;;;1.70;1.10;;;;;;;27.96;31.64;101679.72;5113631;28;20053;-85
2022/08/05 11:15:33;;;;;;;1.27;0.90;;;;;;;28.02;31.59;101674.84;5113928;28;20125;-85
2022/08/05 11:18:26;;;;;;;2.55;1.08;;;;;;;28.54;31.39;101685.63;5115285;28;20020;-84
2022/08/05 11:20:53;;;;;;;2.17;1.10;;;;;;;28.69;29.11;101674.09;5115560;28;20372;-85
2022/08/05 11:23:40;;;;;;;2.10;1.25;;;;;;;29.61;30.06;101675.47;5113932;28;20173;-85
2022/08/05 11:26:12;;;;;;;1.83;1.23;;;;;;;30.03;28.52;101675.91;5114030;28;20032;-84
2022/08/05 11:28:41;;;;;;;2.55;1.40;;;;;;;29.93;28.01;101679.03;5113751;28;20040;-85
2022/08/05 11:31:07;;;;;;;2.55;1.40;;;;;;;30.40;28.18;101687.59;5114006;28;20031;-84